createdAt,value
2019-04-25T00:01:11.590Z,49.90
2019-04-25T00:03:42.577Z,49.80
2019-04-25T00:06:12.415Z,49.70
2019-04-25T00:08:41.327Z,49.90
2019-04-25T00:11:12.044Z,49.30
2019-04-25T00:13:41.929Z,49.20
2019-04-25T00:16:11.607Z,49.30
2019-04-25T00:18:41.621Z,49.40
2019-04-25T00:21:12.222Z,49.70
2019-04-25T00:23:43.008Z,49.70
2019-04-25T00:26:13.894Z,50.00
2019-04-25T00:28:44.197Z,50.40
2019-04-25T00:31:13.547Z,50.50
2019-04-25T00:33:44.024Z,51.30
2019-04-25T00:36:12.164Z,51.40
2019-04-25T00:38:42.921Z,51.70
2019-04-25T00:41:11.621Z,51.70
2019-04-25T00:43:42.170Z,51.60
2019-04-25T00:46:11.429Z,51.60
2019-04-25T00:48:41.506Z,51.20
2019-04-25T00:51:11.739Z,50.80
2019-04-25T00:53:41.815Z,50.90
2019-04-25T00:56:11.249Z,51.00
2019-04-25T00:58:45.231Z,51.30
2019-04-25T01:01:33.877Z,51.40
2019-04-25T01:04:02.597Z,51.30
2019-04-25T01:06:31.890Z,51.80
2019-04-25T01:09:01.493Z,51.10
2019-04-25T01:11:31.401Z,51.30
2019-04-25T01:13:59.962Z,50.70
2019-04-25T01:16:28.417Z,50.60
2019-04-25T01:18:56.828Z,50.70
2019-04-25T01:21:25.416Z,50.80
2019-04-25T01:23:54.539Z,50.40
2019-04-25T01:26:23.963Z,50.30
2019-04-25T01:28:54.077Z,50.40
2019-04-25T01:31:24.958Z,50.40
2019-04-25T01:33:54.620Z,50.50
2019-04-25T01:36:25.208Z,50.80
2019-04-25T01:38:56.626Z,50.40
2019-04-25T01:41:43.992Z,50.50
2019-04-25T01:44:29.330Z,51.10
2019-04-25T01:46:58.215Z,50.60
2019-04-25T01:49:26.782Z,51.50
2019-04-25T01:51:57.446Z,52.00
2019-04-25T01:54:25.540Z,51.90
2019-04-25T01:56:55.282Z,52.50
2019-04-25T01:59:24.109Z,52.40
2019-04-25T02:01:54.337Z,53.20
2019-04-25T02:04:23.155Z,52.20
2019-04-25T02:06:53.683Z,52.90
2019-04-25T02:09:23.326Z,52.50
2019-04-25T02:12:04.787Z,52.40
2019-04-25T02:14:33.684Z,52.70
2019-04-25T02:17:04.032Z,52.80
2019-04-25T02:19:33.908Z,52.80
2019-04-25T02:22:04.030Z,53.20
2019-04-25T02:24:33.903Z,53.10
2019-04-25T02:27:04.543Z,53.20
2019-04-25T02:29:33.293Z,53.60
2019-04-25T02:32:07.878Z,53.60
2019-04-25T02:34:34.676Z,53.80
2019-04-25T02:37:05.643Z,53.90
2019-04-25T02:39:36.788Z,54.00
2019-04-25T02:42:06.918Z,54.20
2019-04-25T02:44:35.045Z,54.40
2019-04-25T02:47:08.175Z,54.60
2019-04-25T02:49:39.660Z,54.90
2019-04-25T02:52:15.662Z,55.00
2019-04-25T02:54:41.973Z,55.20
2019-04-25T02:57:10.409Z,55.30
2019-04-25T02:59:38.847Z,55.40
2019-04-25T03:02:09.302Z,55.90
2019-04-25T03:04:37.918Z,56.20
2019-04-25T03:07:08.076Z,56.40
2019-04-25T03:09:36.461Z,56.80
2019-04-25T03:12:06.605Z,56.60
2019-04-25T03:14:35.452Z,56.40
2019-04-25T03:17:05.212Z,56.40
2019-04-25T03:19:43.912Z,56.30
2019-04-25T03:22:15.051Z,56.30
2019-04-25T03:24:45.905Z,56.80
2019-04-25T03:27:14.281Z,56.70
2019-04-25T03:29:44.208Z,56.40
2019-04-25T03:32:18.769Z,56.60
2019-04-25T03:34:43.580Z,56.30
2019-04-25T03:37:13.618Z,56.20
2019-04-25T03:39:43.659Z,56.20
2019-04-25T03:42:13.984Z,56.20
2019-04-25T03:44:43.792Z,56.60
2019-04-25T03:47:13.557Z,56.50
2019-04-25T03:49:43.478Z,56.30
2019-04-25T03:52:12.645Z,56.30
2019-04-25T03:54:43.414Z,56.60
2019-04-25T03:57:14.339Z,57.80
2019-04-25T03:59:43.662Z,58.60
2019-04-25T04:02:13.528Z,58.20
2019-04-25T04:04:43.539Z,57.80
2019-04-25T04:07:12.715Z,58.20
2019-04-25T04:09:43.542Z,58.20
2019-04-25T04:12:12.357Z,58.90
2019-04-25T04:14:40.876Z,60.10
2019-04-25T04:17:16.430Z,60.00
2019-04-25T04:19:49.601Z,59.60
2019-04-25T04:22:35.911Z,59.20
2019-04-25T04:25:07.514Z,58.90
2019-04-25T04:27:36.027Z,59.60
2019-04-25T04:30:06.902Z,59.30
2019-04-25T04:32:35.317Z,59.10
2019-04-25T04:35:04.834Z,59.40
2019-04-25T04:37:33.338Z,59.30
2019-04-25T04:40:03.416Z,59.20
2019-04-25T04:42:33.642Z,59.10
2019-04-25T04:45:03.608Z,59.30
2019-04-25T04:47:33.267Z,59.10
2019-04-25T04:50:03.866Z,59.10
2019-04-25T04:52:33.980Z,59.90
2019-04-25T04:55:06.334Z,59.10
2019-04-25T04:57:35.984Z,59.10
2019-04-25T05:00:05.849Z,59.30
2019-04-25T05:02:53.297Z,60.00
2019-04-25T05:05:39.618Z,60.00
2019-04-25T05:08:10.926Z,59.50
2019-04-25T05:10:39.561Z,59.60
2019-04-25T05:13:07.983Z,59.30
2019-04-25T05:15:36.409Z,58.40
2019-04-25T05:18:04.902Z,58.40
2019-04-25T05:20:34.302Z,57.70
2019-04-25T05:23:03.798Z,56.80
2019-04-25T05:25:32.209Z,56.20
2019-04-25T05:28:04.826Z,55.80
2019-04-25T05:30:38.696Z,54.60
2019-04-25T05:33:07.157Z,53.90
2019-04-25T05:35:35.565Z,52.70
2019-04-25T05:38:04.424Z,52.60
2019-04-25T05:40:34.473Z,52.40
2019-04-25T05:43:10.385Z,51.80
2019-04-25T05:45:38.881Z,51.70
2019-04-25T05:48:07.293Z,51.50
2019-04-25T05:50:35.801Z,50.10
2019-04-25T05:53:04.416Z,49.50
2019-04-25T05:55:34.188Z,49.00
2019-04-25T05:58:03.860Z,47.20
2019-04-25T06:00:34.105Z,45.00
2019-04-25T06:03:03.629Z,43.70
2019-04-25T06:05:33.473Z,42.80
2019-04-25T06:08:04.511Z,41.20
2019-04-25T06:10:34.651Z,40.40
2019-04-25T06:13:05.753Z,39.90
2019-04-25T06:15:39.462Z,38.50
2019-04-25T06:18:21.197Z,37.60
2019-04-25T06:20:49.795Z,37.10
2019-04-25T06:23:36.102Z,36.20
2019-04-25T06:26:18.832Z,35.00
2019-04-25T06:28:34.789Z,34.80
2019-04-25T06:31:04.434Z,33.90
2019-04-25T06:33:33.935Z,33.10
2019-04-25T06:36:04.152Z,31.60
2019-04-25T06:38:33.474Z,31.30
2019-04-25T06:41:03.542Z,30.50
2019-04-25T06:43:34.138Z,29.50
2019-04-25T06:46:21.090Z,28.60
2019-04-25T06:48:51.244Z,27.40
2019-04-25T06:51:19.632Z,27.40
2019-04-25T06:53:48.087Z,26.70
2019-04-25T06:56:16.564Z,26.10
2019-04-25T06:58:44.986Z,26.00
2019-04-25T07:01:13.673Z,24.70
2019-04-25T07:03:44.062Z,24.50
2019-04-25T07:06:12.966Z,24.30
2019-04-25T07:08:42.978Z,24.00
2019-04-25T07:11:14.017Z,24.40
2019-04-25T07:13:43.834Z,23.70
2019-04-25T07:16:13.423Z,23.60
2019-04-25T07:18:43.463Z,23.20
2019-04-25T07:21:14.061Z,23.00
2019-04-25T07:23:43.515Z,22.70
2019-04-25T07:26:15.973Z,21.80
2019-04-25T07:28:46.056Z,22.30
2019-04-25T07:31:19.133Z,21.90
2019-04-25T07:33:53.234Z,21.40
2019-04-25T07:36:23.215Z,21.40
2019-04-25T07:39:05.140Z,21.50
2019-04-25T07:41:22.043Z,21.70
2019-04-25T07:43:50.481Z,21.10
2019-04-25T07:46:18.907Z,21.20
2019-04-25T07:48:47.719Z,20.90
2019-04-25T07:51:16.625Z,20.60
2019-04-25T07:53:45.167Z,20.00
2019-04-25T07:56:14.254Z,19.30
2019-04-25T07:58:50.421Z,19.50
2019-04-25T08:01:14.533Z,19.00
2019-04-25T08:03:43.851Z,19.30
2019-04-25T08:06:13.738Z,19.40
2019-04-25T08:08:43.648Z,19.40
2019-04-25T08:11:14.079Z,19.00
2019-04-25T08:13:50.577Z,19.10
2019-04-25T08:16:26.635Z,19.00
2019-04-25T08:18:55.186Z,19.10
2019-04-25T08:21:23.956Z,19.50
2019-04-25T08:23:53.319Z,19.20
2019-04-25T08:26:22.081Z,18.90
2019-04-25T08:28:55.766Z,19.10
2019-04-25T08:31:20.635Z,18.60
2019-04-25T08:33:49.057Z,18.50
2019-04-25T08:36:17.548Z,18.90
2019-04-25T08:38:45.952Z,19.20
2019-04-25T08:41:14.391Z,19.30
2019-04-25T08:43:43.677Z,18.90
2019-04-25T08:46:14.003Z,18.70
2019-04-25T08:49:02.275Z,19.00
2019-04-25T08:51:36.092Z,18.90
2019-04-25T08:54:09.690Z,18.30
2019-04-25T08:56:38.188Z,17.90
2019-04-25T08:59:34.086Z,18.30
2019-04-25T09:02:06.729Z,18.10
2019-04-25T09:04:40.124Z,17.10
2019-04-25T09:07:08.686Z,17.50
2019-04-25T09:09:37.863Z,17.90
2019-04-25T09:12:06.521Z,17.00
2019-04-25T09:14:36.304Z,16.90
2019-04-25T09:17:05.236Z,17.20
2019-04-25T09:19:35.964Z,17.30
2019-04-25T09:22:03.867Z,17.70
2019-04-25T09:24:33.513Z,16.70
2019-04-25T09:27:03.661Z,16.90
2019-04-25T09:29:34.334Z,16.70
2019-04-25T09:32:03.695Z,17.70
2019-04-25T09:34:33.565Z,17.50
2019-04-25T09:37:03.187Z,17.10
2019-04-25T09:39:33.813Z,17.20
2019-04-25T09:42:04.352Z,16.70
2019-04-25T09:44:38.429Z,16.90
2019-04-25T09:47:08.558Z,17.40
2019-04-25T09:49:39.129Z,17.00
2019-04-25T09:52:09.448Z,16.80
2019-04-25T09:54:48.024Z,16.80
2019-04-25T09:57:34.525Z,16.60
2019-04-25T10:00:04.554Z,16.80
2019-04-25T10:02:32.977Z,16.30
2019-04-25T10:05:01.384Z,16.30
2019-04-25T10:07:29.794Z,15.80
2019-04-25T10:09:58.270Z,15.70
2019-04-25T10:12:26.697Z,15.80
2019-04-25T10:15:04.537Z,14.60
2019-04-25T10:17:33.925Z,14.60
2019-04-25T10:20:02.441Z,14.70
2019-04-25T10:22:30.927Z,15.30
2019-04-25T10:25:00.762Z,15.90
2019-04-25T10:27:29.524Z,15.80
2019-04-25T10:29:58.105Z,14.80
2019-04-25T10:32:26.891Z,14.10
2019-04-25T10:34:55.525Z,13.60
2019-04-25T10:37:24.412Z,12.80
2019-04-25T10:39:55.238Z,13.60
2019-04-25T10:42:23.922Z,13.90
2019-04-25T10:44:56.128Z,13.50
2019-04-25T10:47:22.645Z,11.60
2019-04-25T10:49:53.297Z,12.40
2019-04-25T10:52:24.194Z,11.20
2019-04-25T10:54:54.169Z,11.50
2019-04-25T10:57:24.795Z,11.10
2019-04-25T11:00:00.788Z,10.30
2019-04-25T11:02:23.623Z,10.50
2019-04-25T11:04:54.555Z,10.90
2019-04-25T11:07:23.498Z,10.70
2019-04-25T11:09:53.946Z,10.70
2019-04-25T11:12:23.513Z,10.80
2019-04-25T11:14:53.261Z,10.20
2019-04-25T11:17:24.097Z,10.20
2019-04-25T11:19:53.949Z,10.50
2019-04-25T11:22:24.026Z,9.50
2019-04-25T11:24:53.080Z,9.90
2019-04-25T11:27:21.532Z,9.60
2019-04-25T11:29:50.750Z,10.00
2019-04-25T11:32:20.865Z,10.30
2019-04-25T11:34:49.385Z,10.30
2019-04-25T11:37:19.027Z,10.40
2019-04-25T11:39:51.703Z,10.70
2019-04-25T11:42:20.874Z,10.50
2019-04-25T11:44:49.794Z,10.00
2019-04-25T11:47:18.727Z,9.20
2019-04-25T11:49:47.839Z,9.30
2019-04-25T11:52:30.124Z,9.30
2019-04-25T11:54:57.100Z,8.90
2019-04-25T11:57:25.510Z,8.50
2019-04-25T11:59:55.792Z,7.80
2019-04-25T12:02:25.531Z,7.60
2019-04-25T12:04:54.989Z,7.70
2019-04-25T12:07:23.787Z,8.00
2019-04-25T12:09:54.117Z,7.30
2019-04-25T12:12:24.033Z,7.20
2019-04-25T12:14:54.036Z,7.00
2019-04-25T12:17:23.374Z,7.50
2019-04-25T12:19:53.612Z,6.90
2019-04-25T12:22:23.721Z,6.70
2019-04-25T12:24:54.344Z,6.70
2019-04-25T12:27:22.826Z,6.70
2019-04-25T12:29:52.345Z,7.30
2019-04-25T12:32:21.525Z,6.40
2019-04-25T12:34:49.950Z,6.80
2019-04-25T12:37:18.719Z,7.00
2019-04-25T12:39:47.143Z,6.60
2019-04-25T12:42:16.001Z,6.90
2019-04-25T12:44:54.973Z,6.50
2019-04-25T12:47:25.094Z,6.70
2019-04-25T12:49:54.862Z,6.80
2019-04-25T12:52:24.618Z,6.70
2019-04-25T12:54:55.469Z,6.80
2019-04-25T12:57:24.111Z,7.00
2019-04-25T12:59:55.138Z,7.00
2019-04-25T13:02:23.562Z,7.30
2019-04-25T13:04:52.168Z,6.80
2019-04-25T13:07:20.590Z,7.10
2019-04-25T13:09:51.967Z,7.50
2019-04-25T13:12:19.993Z,6.80
2019-04-25T13:14:48.595Z,7.00
2019-04-25T13:17:17.081Z,7.10
2019-04-25T13:19:45.577Z,7.10
2019-04-25T13:22:14.518Z,7.20
2019-04-25T13:24:42.927Z,7.40
2019-04-25T13:27:28.276Z,7.00
2019-04-25T13:30:01.063Z,7.50
2019-04-25T13:32:33.621Z,7.60
2019-04-25T13:35:18.671Z,7.50
2019-04-25T13:37:47.073Z,7.10
2019-04-25T13:40:17.170Z,7.50
2019-04-25T13:42:46.201Z,7.50
2019-04-25T13:45:15.818Z,7.00
2019-04-25T13:47:44.302Z,7.70
2019-04-25T13:50:14.579Z,6.90
2019-04-25T13:52:43.313Z,7.00
2019-04-25T13:55:13.414Z,7.20
2019-04-25T13:57:42.152Z,7.40
2019-04-25T14:00:11.498Z,7.60
2019-04-25T14:02:39.906Z,7.80
2019-04-25T14:05:09.029Z,7.80
2019-04-25T14:07:37.434Z,7.90
2019-04-25T14:10:06.613Z,7.90
2019-04-25T14:12:35.875Z,7.90
2019-04-25T14:15:06.990Z,6.80
2019-04-25T14:17:38.125Z,7.30
2019-04-25T14:20:21.831Z,7.10
2019-04-25T14:22:50.345Z,7.60
2019-04-25T14:25:20.342Z,7.30
2019-04-25T14:27:48.761Z,7.10
2019-04-25T14:30:19.466Z,6.50
2019-04-25T14:32:47.896Z,5.50
2019-04-25T14:35:16.461Z,5.20
2019-04-25T14:37:44.905Z,5.00
2019-04-25T14:40:14.021Z,5.70
2019-04-25T14:42:42.650Z,5.30
2019-04-25T14:45:11.258Z,5.30
2019-04-25T14:47:39.657Z,4.70
2019-04-25T14:50:08.558Z,4.80
2019-04-25T14:52:36.952Z,4.50
2019-04-25T14:55:24.864Z,4.90
2019-04-25T14:57:53.593Z,4.60
2019-04-25T15:00:23.966Z,4.50
2019-04-25T15:02:54.240Z,4.90
2019-04-25T15:05:23.448Z,5.20
2019-04-25T15:07:52.083Z,5.20
2019-04-25T15:10:20.892Z,5.50
2019-04-25T15:12:49.291Z,5.20
2019-04-25T15:15:17.710Z,5.00
2019-04-25T15:17:46.873Z,5.10
2019-04-25T15:20:15.585Z,6.00
2019-04-25T15:22:43.989Z,6.20
2019-04-25T15:25:12.430Z,5.60
2019-04-25T15:27:41.034Z,5.60
2019-04-25T15:30:11.449Z,5.50
2019-04-25T15:32:39.886Z,5.20
2019-04-25T15:35:10.378Z,5.10
2019-04-25T15:37:43.137Z,4.90
2019-04-25T15:40:13.456Z,4.80
2019-04-25T15:42:49.167Z,5.00
2019-04-25T15:45:19.305Z,6.30
2019-04-25T15:47:47.834Z,7.50
2019-04-25T15:50:16.422Z,8.00
2019-04-25T15:52:45.028Z,8.00
2019-04-25T15:55:13.764Z,8.30
2019-04-25T15:57:42.177Z,8.60
2019-04-25T16:00:14.778Z,8.30
2019-04-25T16:02:43.742Z,8.50
2019-04-25T16:05:12.784Z,8.80
2019-04-25T16:07:41.243Z,8.60
2019-04-25T16:10:10.592Z,8.50
2019-04-25T16:12:39.009Z,8.70
2019-04-25T16:15:08.062Z,8.90
2019-04-25T16:17:37.173Z,8.80
2019-04-25T16:20:06.768Z,8.80
2019-04-25T16:22:35.244Z,8.70
2019-04-25T16:25:05.899Z,8.50
2019-04-25T16:27:34.316Z,8.60
2019-04-25T16:30:03.060Z,9.10
2019-04-25T16:32:32.393Z,9.50
2019-04-25T16:35:00.962Z,9.50
2019-04-25T16:37:30.300Z,9.80
2019-04-25T16:39:58.887Z,10.10
2019-04-25T16:42:27.309Z,10.10
2019-04-25T16:44:55.992Z,10.20
2019-04-25T16:47:26.427Z,10.10
2019-04-25T16:49:55.078Z,10.30
2019-04-25T16:52:23.818Z,10.30
2019-04-25T16:54:52.298Z,10.30
2019-04-25T16:57:20.859Z,10.40
2019-04-25T16:59:49.501Z,10.40
2019-04-25T17:02:18.318Z,10.40
2019-04-25T17:04:46.931Z,10.40
2019-04-25T17:07:16.131Z,10.50
2019-04-25T17:09:44.602Z,10.50
2019-04-25T17:12:13.455Z,10.60
2019-04-25T17:14:58.671Z,10.90
2019-04-25T17:17:28.989Z,10.90
2019-04-25T17:20:01.996Z,10.90
2019-04-25T17:22:30.917Z,11.10
2019-04-25T17:24:59.381Z,11.00
2019-04-25T17:27:28.150Z,11.20
2019-04-25T17:29:56.656Z,11.50
2019-04-25T17:32:52.866Z,11.70
2019-04-25T17:35:17.603Z,11.90
2019-04-25T17:37:47.806Z,12.00
2019-04-25T17:40:29.657Z,12.30
2019-04-25T17:43:10.196Z,12.30
2019-04-25T17:45:29.909Z,12.70
2019-04-25T17:47:58.394Z,12.40
2019-04-25T17:50:26.789Z,12.80
2019-04-25T17:52:55.220Z,12.70
2019-04-25T17:55:23.627Z,12.90
2019-04-25T17:57:52.111Z,13.10
2019-04-25T18:00:28.847Z,13.30
2019-04-25T18:02:59.093Z,13.60
2019-04-25T18:05:27.463Z,14.30
2019-04-25T18:07:56.148Z,13.90
2019-04-25T18:10:24.847Z,14.10
2019-04-25T18:12:53.651Z,14.20
2019-04-25T18:15:26.701Z,14.40
2019-04-25T18:17:55.130Z,14.60
2019-04-25T18:20:27.596Z,14.60
2019-04-25T18:23:12.341Z,14.90
2019-04-25T18:25:54.353Z,14.90
2019-04-25T18:28:24.447Z,15.10
2019-04-25T18:30:53.964Z,15.10
2019-04-25T18:33:28.746Z,15.40
2019-04-25T18:35:59.454Z,15.40
2019-04-25T18:38:36.102Z,15.60
2019-04-25T18:41:06.241Z,15.70
2019-04-25T18:43:39.846Z,15.80
2019-04-25T18:46:09.971Z,15.80
2019-04-25T18:48:38.411Z,15.90
2019-04-25T18:51:06.894Z,16.00
2019-04-25T18:53:43.059Z,16.10
2019-04-25T18:56:13.212Z,16.20
2019-04-25T18:59:01.035Z,16.30
2019-04-25T19:01:39.935Z,16.50
2019-04-25T19:04:09.992Z,16.60
2019-04-25T19:06:51.057Z,16.60
2019-04-25T19:09:11.329Z,16.70
2019-04-25T19:11:40.841Z,17.00
2019-04-25T19:14:09.500Z,17.10
2019-04-25T19:16:39.645Z,17.10
2019-04-25T19:19:08.217Z,17.20
2019-04-25T19:21:36.629Z,17.40
2019-04-25T19:24:06.693Z,17.50
2019-04-25T19:26:35.105Z,17.70
2019-04-25T19:29:03.590Z,17.90
2019-04-25T19:31:32.011Z,17.90
2019-04-25T19:34:00.411Z,17.90
2019-04-25T19:36:28.889Z,18.20
2019-04-25T19:38:57.307Z,18.30
2019-04-25T19:41:27.360Z,18.40
2019-04-25T19:44:12.402Z,18.60
2019-04-25T19:46:42.860Z,18.60
2019-04-25T19:49:11.403Z,18.80
2019-04-25T19:51:41.650Z,18.90
2019-04-25T19:54:09.977Z,19.00
2019-04-25T19:56:38.412Z,19.00
2019-04-25T19:59:06.958Z,18.90
2019-04-25T20:01:35.364Z,19.00
2019-04-25T20:04:11.959Z,19.10
2019-04-25T20:06:57.992Z,19.30
2019-04-25T20:09:28.643Z,19.50
2019-04-25T20:11:57.441Z,19.80
2019-04-25T20:14:25.846Z,20.10
2019-04-25T20:16:54.276Z,20.60
2019-04-25T20:19:22.786Z,20.30
2019-04-25T20:21:52.049Z,20.60
2019-04-25T20:24:20.689Z,20.60
2019-04-25T20:26:49.132Z,20.80
2019-04-25T20:29:18.142Z,21.00
2019-04-25T20:31:46.591Z,21.10
2019-04-25T20:34:15.039Z,21.20
2019-04-25T20:36:44.636Z,21.40
2019-04-25T20:39:14.150Z,21.40
2019-04-25T20:41:42.609Z,21.50
2019-04-25T20:44:11.049Z,21.50
2019-04-25T20:46:39.520Z,21.60
2019-04-25T20:49:07.931Z,22.00
2019-04-25T20:51:36.367Z,22.00
2019-04-25T20:54:05.173Z,22.20
2019-04-25T20:56:33.598Z,22.40
2019-04-25T20:59:02.122Z,22.60
2019-04-25T21:01:30.537Z,22.60
2019-04-25T21:03:59.034Z,22.60
2019-04-25T21:06:29.211Z,22.50
2019-04-25T21:08:57.655Z,22.50
2019-04-25T21:11:26.207Z,22.70
2019-04-25T21:14:02.057Z,22.60
2019-04-25T21:16:44.033Z,22.50
2019-04-25T21:19:16.924Z,22.50
2019-04-25T21:21:45.449Z,22.60
2019-04-25T21:24:13.878Z,22.50
2019-04-25T21:26:42.292Z,22.40
2019-04-25T21:29:10.782Z,22.50
2019-04-25T21:31:39.260Z,22.50
2019-04-25T21:34:07.689Z,22.20
2019-04-25T21:36:36.790Z,22.40
2019-04-25T21:39:08.081Z,22.30
2019-04-25T21:41:39.090Z,22.40
2019-04-25T21:44:08.636Z,22.60
2019-04-25T21:46:37.117Z,22.70
2019-04-25T21:49:05.823Z,22.90
2019-04-25T21:51:34.275Z,22.90
2019-04-25T21:54:03.664Z,22.90
2019-04-25T21:56:32.589Z,23.20
2019-04-25T21:59:01.913Z,23.40
2019-04-25T22:01:34.898Z,23.60
2019-04-25T22:04:03.692Z,23.90
2019-04-25T22:06:33.367Z,23.70
2019-04-25T22:09:01.811Z,23.90
2019-04-25T22:11:30.485Z,23.80
2019-04-25T22:13:59.518Z,23.70
2019-04-25T22:16:28.621Z,23.70
2019-04-25T22:18:57.794Z,23.70
2019-04-25T22:21:37.486Z,23.80
2019-04-25T22:24:06.098Z,23.60
2019-04-25T22:26:27.308Z,23.70
2019-04-25T22:28:56.811Z,23.80
2019-04-25T22:31:33.441Z,23.90
2019-04-25T22:34:12.366Z,23.80
2019-04-25T22:36:41.901Z,24.50
2019-04-25T22:39:11.969Z,24.50
2019-04-25T22:41:46.645Z,24.80
2019-04-25T22:44:18.428Z,24.90
2019-04-25T22:46:48.233Z,25.10
2019-04-25T22:49:16.755Z,25.00
2019-04-25T22:51:45.230Z,25.10
2019-04-25T22:54:14.365Z,25.10
2019-04-25T22:56:42.770Z,25.30
2019-04-25T22:59:11.607Z,25.20
2019-04-25T23:01:56.636Z,25.10
2019-04-25T23:04:38.893Z,25.00
2019-04-25T23:07:07.960Z,24.90
2019-04-25T23:09:37.685Z,24.80
2019-04-25T23:12:06.682Z,25.20
2019-04-25T23:14:35.831Z,24.70
2019-04-25T23:17:05.668Z,24.10
2019-04-25T23:19:34.139Z,24.10
2019-04-25T23:22:03.259Z,24.10
2019-04-25T23:24:34.792Z,24.10
2019-04-25T23:27:08.197Z,24.10
2019-04-25T23:29:36.730Z,24.10
2019-04-25T23:32:06.733Z,24.40
2019-04-25T23:34:35.233Z,24.10
2019-04-25T23:37:04.676Z,25.40
2019-04-25T23:39:33.788Z,26.80
2019-04-25T23:42:02.219Z,28.80
2019-04-25T23:44:30.630Z,30.10
2019-04-25T23:46:59.313Z,31.20
2019-04-25T23:49:27.757Z,32.00
2019-04-25T23:51:56.441Z,32.90
2019-04-25T23:54:24.878Z,33.40
2019-04-25T23:56:53.391Z,34.20
2019-04-25T23:59:21.826Z,35.00
